Ashmont, Canada
Current Conditions -  °F | °C
As of 7:00 AM on Thursday 29 Jan 2015 (Local Time) from CYOD Reporting Station
Snow Showers Snow Showers  
Wind Chill: -6°   Ceiling: 1000
Heat Index:   Visibility: 15mi
Dew Point:   Wind: 8mph
Humidity: 79%   Direction: 150°SSE
Pressure: 30.42"   Gusts: NA
Location:  54.13°N, 111.57°W
Report Text: CYOD 291400Z 15007KT 15SM -SHSN OVC010 M14/M17 A3042 RMK SC8PCPN VRY LGT SLP352
Loading
Personal Weather Stations






























Interactive Weather Map New forecast layout! Learn more

10-Day Weather Forecast

Advertisements
Track Severe Weather on mobile